createdAt,value
2022-11-28T00:01:43.352Z,29.60
2022-11-28T00:04:11.999Z,28.90
2022-11-28T00:06:45.427Z,28.90
2022-11-28T00:09:15.496Z,30.60
2022-11-28T00:11:46.326Z,31.20
2022-11-28T00:14:16.476Z,29.70
2022-11-28T00:16:47.084Z,30.10
2022-11-28T00:19:15.105Z,30.30
2022-11-28T00:21:43.113Z,29.40
2022-11-28T00:24:11.149Z,28.70
2022-11-28T00:26:42.100Z,30.50
2022-11-28T00:29:10.502Z,30.60
2022-11-28T00:31:43.016Z,28.30
2022-11-28T00:36:41.002Z,30.80
2022-11-28T00:39:08.888Z,30.30
2022-11-28T00:41:36.792Z,31.10
2022-11-28T00:44:06.531Z,30.40
2022-11-28T00:46:35.876Z,30.50
2022-11-28T00:49:06.553Z,31.30
2022-11-28T00:51:35.600Z,30.30
2022-11-28T00:54:06.113Z,30.80
2022-11-28T00:56:39.052Z,33.10
2022-11-28T00:59:07.433Z,32.30
2022-11-28T01:01:43.887Z,32.50
2022-11-28T01:04:17.673Z,31.80
2022-11-28T01:06:48.754Z,35.10
2022-11-28T01:09:21.754Z,34.90
2022-11-28T01:11:52.714Z,32.50
2022-11-28T01:14:23.913Z,33.10
2022-11-28T01:16:54.273Z,33.60
2022-11-28T01:19:22.159Z,34.20
2022-11-28T01:21:50.288Z,35.10
2022-11-28T01:24:18.527Z,34.30
2022-11-28T01:26:46.752Z,35.10
2022-11-28T01:29:15.039Z,34.20
2022-11-28T01:31:43.293Z,32.80
2022-11-28T01:34:11.424Z,32.70
2022-11-28T01:36:39.473Z,34.20
2022-11-28T01:39:07.678Z,34.60
2022-11-28T01:41:35.573Z,35.10
2022-11-28T01:44:15.428Z,37.30
2022-11-28T01:46:43.929Z,34.80
2022-11-28T01:49:13.963Z,34.70
2022-11-28T01:51:47.727Z,32.00
2022-11-28T01:54:16.923Z,37.60
2022-11-28T01:56:52.571Z,37.20
2022-11-28T01:59:25.111Z,34.80
2022-11-28T02:01:53.264Z,34.60
2022-11-28T02:04:22.227Z,35.70
2022-11-28T02:06:50.080Z,35.40
2022-11-28T02:09:18.119Z,34.30
2022-11-28T02:12:03.952Z,33.70
2022-11-28T02:14:54.740Z,35.50
2022-11-28T02:17:55.896Z,35.10
2022-11-28T02:21:04.520Z,34.00
2022-11-28T02:23:41.525Z,35.50
2022-11-28T02:26:30.792Z,34.80
2022-11-28T02:29:37.429Z,36.20
2022-11-28T02:32:48.471Z,33.90
2022-11-28T02:35:37.772Z,34.40
2022-11-28T02:38:29.043Z,36.70
2022-11-28T02:41:19.942Z,36.40
2022-11-28T02:44:11.152Z,37.60
2022-11-28T02:46:57.862Z,38.00
2022-11-28T02:50:07.593Z,35.90
2022-11-28T02:52:42.740Z,35.30
2022-11-28T02:55:11.528Z,37.20
2022-11-28T02:57:42.563Z,38.30
2022-11-28T03:00:39.591Z,36.50
2022-11-28T03:03:42.545Z,36.60
2022-11-28T03:06:44.481Z,35.70
2022-11-28T03:10:01.586Z,36.00
2022-11-28T03:12:50.749Z,37.10
2022-11-28T03:15:24.180Z,34.60
2022-11-28T03:18:03.210Z,36.70
2022-11-28T03:20:47.642Z,34.60
2022-11-28T03:23:43.479Z,34.50
2022-11-28T03:26:23.360Z,34.10
2022-11-28T03:29:07.148Z,33.50
2022-11-28T03:31:51.769Z,32.50
2022-11-28T03:34:23.595Z,32.60
2022-11-28T03:36:57.913Z,33.60
2022-11-28T03:39:32.319Z,35.10
2022-11-28T03:42:16.113Z,32.10
2022-11-28T03:44:50.228Z,33.20
2022-11-28T03:47:18.149Z,32.80
2022-11-28T03:49:53.216Z,33.40
2022-11-28T03:52:32.226Z,32.60
2022-11-28T03:55:24.074Z,34.90
2022-11-28T03:57:59.295Z,35.90
2022-11-28T04:00:27.354Z,35.20
2022-11-28T04:03:13.722Z,34.70
2022-11-28T04:06:04.621Z,35.00
2022-11-28T04:08:40.127Z,35.70
2022-11-28T04:11:15.067Z,37.30
2022-11-28T04:13:59.641Z,42.60
2022-11-28T04:16:42.795Z,51.00
2022-11-28T04:22:07.828Z,62.00
2022-11-28T04:24:41.853Z,61.20
2022-11-28T04:27:19.065Z,48.10
2022-11-28T04:29:52.150Z,48.50
2022-11-28T04:32:21.473Z,47.30
2022-11-28T04:34:55.517Z,51.40
2022-11-28T04:37:25.370Z,45.10
2022-11-28T04:39:53.897Z,42.30
2022-11-28T04:42:31.183Z,40.60
2022-11-28T04:45:11.916Z,36.50
2022-11-28T04:47:39.776Z,36.20
2022-11-28T04:50:08.647Z,39.80
2022-11-28T04:52:51.795Z,38.70
2022-11-28T04:55:49.156Z,38.60
2022-11-28T04:58:35.689Z,38.50
2022-11-28T05:01:07.233Z,38.20
2022-11-28T05:03:39.877Z,36.40
2022-11-28T05:06:10.281Z,38.60
2022-11-28T05:08:38.113Z,40.00
2022-11-28T05:11:05.845Z,41.70
2022-11-28T05:13:33.622Z,45.70
2022-11-28T05:16:03.404Z,44.50
2022-11-28T05:18:31.283Z,42.90
2022-11-28T05:20:59.635Z,49.70
2022-11-28T05:23:27.542Z,53.40
2022-11-28T05:25:55.419Z,45.30
2022-11-28T05:28:23.248Z,36.90
2022-11-28T05:31:02.181Z,38.30
2022-11-28T05:33:31.620Z,36.80
2022-11-28T05:36:11.351Z,40.50
2022-11-28T05:38:42.102Z,38.40
2022-11-28T05:41:19.050Z,52.00
2022-11-28T05:43:47.002Z,80.40
2022-11-28T05:46:15.285Z,76.90
2022-11-28T05:48:43.321Z,68.50
2022-11-28T05:51:11.854Z,49.30
2022-11-28T05:53:39.930Z,43.90
2022-11-28T05:56:09.886Z,39.50
2022-11-28T05:58:37.908Z,37.90
2022-11-28T06:01:22.006Z,41.20
2022-11-28T06:03:49.919Z,39.70
2022-11-28T06:06:22.318Z,42.60
2022-11-28T06:08:52.317Z,43.50
2022-11-28T06:11:22.367Z,45.30
2022-11-28T06:13:50.689Z,40.20
2022-11-28T06:16:22.917Z,34.10
2022-11-28T06:18:59.340Z,36.20
2022-11-28T06:21:28.727Z,35.10
2022-11-28T06:23:57.958Z,37.60
2022-11-28T06:26:27.895Z,41.10
2022-11-28T06:28:56.091Z,40.00
2022-11-28T06:31:28.617Z,33.20
2022-11-28T06:33:58.129Z,31.20
2022-11-28T06:36:27.050Z,30.70
2022-11-28T06:38:54.966Z,30.80
2022-11-28T06:41:23.137Z,29.10
2022-11-28T06:43:51.463Z,30.90
2022-11-28T06:46:21.575Z,29.20
2022-11-28T06:48:51.752Z,33.20
2022-11-28T06:51:20.300Z,28.20
2022-11-28T06:53:49.023Z,30.60
2022-11-28T06:56:19.907Z,31.10
2022-11-28T06:58:53.097Z,33.40
2022-11-28T07:01:23.984Z,38.70
2022-11-28T07:03:54.592Z,36.80
2022-11-28T07:06:25.654Z,37.10
2022-11-28T07:08:57.004Z,33.40
2022-11-28T07:11:31.321Z,34.70
2022-11-28T07:14:02.396Z,31.90
2022-11-28T07:16:33.070Z,30.80
2022-11-28T07:19:01.100Z,28.60
2022-11-28T07:21:32.385Z,27.90
2022-11-28T07:24:00.777Z,30.40
2022-11-28T07:26:31.784Z,31.80
2022-11-28T07:29:00.260Z,31.80
2022-11-28T07:31:33.116Z,32.10
2022-11-28T07:34:03.597Z,31.80
2022-11-28T07:36:32.272Z,30.70
2022-11-28T07:39:02.224Z,30.60
2022-11-28T07:41:30.694Z,31.20
2022-11-28T07:44:01.173Z,31.90
2022-11-28T07:46:31.660Z,30.50
2022-11-28T07:49:00.775Z,31.30
2022-11-28T07:51:32.755Z,30.30
2022-11-28T07:54:02.214Z,32.00
2022-11-28T07:57:04.490Z,34.90
2022-11-28T07:59:23.670Z,29.20
2022-11-28T08:01:53.798Z,30.00
2022-11-28T08:04:21.977Z,29.90
2022-11-28T08:06:50.068Z,29.30
2022-11-28T08:09:19.245Z,28.70
2022-11-28T08:11:47.137Z,30.00
2022-11-28T08:14:15.053Z,28.80
2022-11-28T08:16:45.131Z,28.90
2022-11-28T08:19:13.621Z,29.90
2022-11-28T08:21:41.623Z,27.20
2022-11-28T08:24:10.996Z,28.00
2022-11-28T08:26:39.051Z,27.40
2022-11-28T08:29:07.165Z,28.10
2022-11-28T08:31:38.483Z,29.10
2022-11-28T08:34:10.989Z,29.50
2022-11-28T08:36:39.125Z,27.10
2022-11-28T08:39:23.481Z,26.90
2022-11-28T08:41:54.401Z,27.50
2022-11-28T08:44:25.149Z,27.90
2022-11-28T08:46:54.126Z,28.00
2022-11-28T08:49:21.960Z,26.90
2022-11-28T08:51:49.927Z,27.30
2022-11-28T08:54:17.962Z,27.40
2022-11-28T08:56:48.207Z,28.70
2022-11-28T08:59:16.331Z,29.80
2022-11-28T09:01:44.279Z,26.40
2022-11-28T09:04:12.957Z,28.10
2022-11-28T09:06:41.810Z,27.80
2022-11-28T09:09:10.157Z,27.70
2022-11-28T09:11:38.525Z,28.00
2022-11-28T09:14:06.851Z,28.40
2022-11-28T09:16:34.845Z,27.50
2022-11-28T09:19:02.874Z,28.30
2022-11-28T09:21:30.916Z,28.40
2022-11-28T09:24:01.827Z,27.80
2022-11-28T09:26:30.173Z,29.00
2022-11-28T09:28:57.989Z,28.40
2022-11-28T09:31:26.158Z,27.40
2022-11-28T09:33:54.445Z,28.70
2022-11-28T09:36:24.246Z,29.50
2022-11-28T09:38:52.184Z,29.10
2022-11-28T09:41:29.184Z,28.90
2022-11-28T09:44:14.905Z,27.40
2022-11-28T09:46:43.644Z,26.80
2022-11-28T09:49:45.799Z,27.70
2022-11-28T09:52:38.825Z,26.00
2022-11-28T09:55:32.556Z,27.20
2022-11-28T09:58:06.721Z,27.20
2022-11-28T10:00:45.177Z,29.00
2022-11-28T10:03:49.030Z,28.40
2022-11-28T10:06:39.850Z,28.00
2022-11-28T10:09:20.870Z,29.50
2022-11-28T10:12:08.150Z,26.90
2022-11-28T10:15:14.435Z,27.20
2022-11-28T10:18:11.211Z,25.60
2022-11-28T10:20:46.110Z,26.40
2022-11-28T10:23:26.047Z,25.60
2022-11-28T10:26:04.043Z,25.40
2022-11-28T10:28:38.460Z,26.60
2022-11-28T10:31:17.181Z,27.50
2022-11-28T10:33:52.672Z,23.80
2022-11-28T10:36:34.812Z,24.00
2022-11-28T10:39:12.439Z,26.10
2022-11-28T10:42:17.177Z,24.70
2022-11-28T10:45:06.038Z,25.70
2022-11-28T10:47:45.951Z,26.30
2022-11-28T10:50:32.036Z,22.80
2022-11-28T10:53:25.018Z,23.70
2022-11-28T10:56:04.381Z,21.80
2022-11-28T10:59:10.157Z,22.80
2022-11-28T11:01:45.968Z,21.80
2022-11-28T11:04:22.626Z,25.60
2022-11-28T11:07:20.808Z,22.60
2022-11-28T11:09:51.302Z,23.30
2022-11-28T11:12:26.499Z,24.40
2022-11-28T11:14:54.920Z,24.00
2022-11-28T11:17:38.095Z,24.10
2022-11-28T11:20:35.600Z,24.10
2022-11-28T11:23:20.835Z,23.30
2022-11-28T11:25:56.552Z,23.20
2022-11-28T11:28:31.669Z,22.40
2022-11-28T11:31:13.965Z,22.90
2022-11-28T11:33:42.807Z,28.00
2022-11-28T11:36:31.114Z,31.90
2022-11-28T11:39:16.844Z,25.90
2022-11-28T11:41:49.237Z,36.00
2022-11-28T11:44:34.405Z,32.10
2022-11-28T11:47:10.310Z,24.30
2022-11-28T11:50:06.017Z,24.20
2022-11-28T11:52:33.937Z,24.20
2022-11-28T11:55:14.937Z,25.10
2022-11-28T11:57:54.314Z,24.30
2022-11-28T12:00:41.154Z,27.40
2022-11-28T12:03:29.672Z,24.10
2022-11-28T12:06:14.847Z,25.00
2022-11-28T12:08:55.528Z,24.30
2022-11-28T12:11:36.409Z,25.10
2022-11-28T12:14:25.707Z,25.20
2022-11-28T12:20:40.561Z,24.80
2022-11-28T12:23:30.380Z,23.60
2022-11-28T12:26:16.829Z,23.40
2022-11-28T12:31:58.568Z,21.40
2022-11-28T12:34:54.720Z,21.80
2022-11-28T12:38:09.856Z,24.60
2022-11-28T12:41:17.182Z,23.00
2022-11-28T12:44:06.899Z,23.20
2022-11-28T12:46:57.122Z,22.30
2022-11-28T12:49:59.895Z,23.60
2022-11-28T12:52:53.392Z,26.70
2022-11-28T12:55:44.461Z,27.70
2022-11-28T12:58:24.123Z,28.10
2022-11-28T13:01:29.190Z,24.10
2022-11-28T13:04:52.974Z,24.40
2022-11-28T13:10:45.771Z,24.70
2022-11-28T13:13:19.442Z,25.40
2022-11-28T13:16:03.090Z,23.30
2022-11-28T13:18:55.706Z,24.30
2022-11-28T13:21:50.492Z,25.60
2022-11-28T13:24:48.719Z,24.00
2022-11-28T13:27:36.745Z,24.30
2022-11-28T13:30:20.802Z,23.60
2022-11-28T13:33:13.125Z,23.90
2022-11-28T13:35:48.187Z,26.40
2022-11-28T13:38:35.772Z,24.50
2022-11-28T13:42:05.893Z,25.40
2022-11-28T13:44:46.965Z,26.70
2022-11-28T13:47:29.169Z,25.50
2022-11-28T13:50:35.949Z,24.50
2022-11-28T13:53:10.700Z,24.30
2022-11-28T13:58:57.278Z,28.30
2022-11-28T14:01:31.259Z,31.50
2022-11-28T14:04:00.511Z,33.20
2022-11-28T14:06:45.650Z,38.80
2022-11-28T14:09:44.926Z,35.70
2022-11-28T14:12:44.280Z,37.30
2022-11-28T14:15:38.730Z,45.40
2022-11-28T14:18:56.397Z,40.80
2022-11-28T14:25:21.098Z,42.40
2022-11-28T14:27:57.225Z,41.80
2022-11-28T14:30:38.102Z,40.10
2022-11-28T14:33:19.859Z,37.20
2022-11-28T14:35:51.022Z,33.90
2022-11-28T14:38:31.164Z,33.20
2022-11-28T14:41:05.762Z,34.80
2022-11-28T14:43:38.142Z,35.80
2022-11-28T14:46:26.596Z,31.80
2022-11-28T14:49:00.472Z,29.90
2022-11-28T14:51:47.311Z,34.20
2022-11-28T14:54:35.649Z,32.20
2022-11-28T14:57:18.754Z,31.50
2022-11-28T15:02:40.143Z,29.80
2022-11-28T15:05:54.216Z,29.10
2022-11-28T15:09:05.253Z,26.20
2022-11-28T15:11:59.021Z,28.50
2022-11-28T15:14:31.978Z,27.30
2022-11-28T15:17:10.966Z,33.40
2022-11-28T15:19:47.936Z,33.10
2022-11-28T15:22:43.808Z,34.10
2022-11-28T15:25:24.122Z,32.50
2022-11-28T15:27:56.780Z,37.20
2022-11-28T15:30:26.930Z,30.80
2022-11-28T15:33:03.924Z,32.60
2022-11-28T15:35:35.572Z,60.70
2022-11-28T15:38:03.703Z,37.20
2022-11-28T15:40:35.129Z,35.90
2022-11-28T15:43:12.750Z,34.60
2022-11-28T15:45:44.394Z,33.70
2022-11-28T15:48:40.062Z,31.80
2022-11-28T15:51:27.025Z,36.70
2022-11-28T15:54:03.811Z,38.20
2022-11-28T15:56:35.001Z,42.30
2022-11-28T15:59:04.278Z,46.40
2022-11-28T16:01:33.154Z,44.40
2022-11-28T16:04:08.550Z,45.40
2022-11-28T16:06:41.397Z,52.00
2022-11-28T16:09:18.546Z,48.50
2022-11-28T16:12:04.003Z,52.60
2022-11-28T16:14:36.663Z,51.70
2022-11-28T16:17:20.451Z,46.10
2022-11-28T16:19:55.041Z,36.90
2022-11-28T16:22:31.636Z,38.30
2022-11-28T16:25:24.057Z,48.90
2022-11-28T16:27:57.414Z,44.80
2022-11-28T16:30:38.406Z,46.50
2022-11-28T16:33:36.936Z,52.00
2022-11-28T16:36:14.261Z,47.90
2022-11-28T16:38:45.262Z,49.00
2022-11-28T16:41:25.434Z,49.30
2022-11-28T16:44:15.199Z,56.20
2022-11-28T16:47:00.992Z,55.80
2022-11-28T16:49:40.610Z,64.70
2022-11-28T16:52:27.294Z,53.40
2022-11-28T16:55:01.311Z,55.60
2022-11-28T16:57:49.172Z,55.30
2022-11-28T17:00:20.155Z,46.60
2022-11-28T17:02:59.792Z,46.50
2022-11-28T17:05:27.717Z,41.90
2022-11-28T17:07:56.194Z,40.80
2022-11-28T17:10:27.862Z,40.10
2022-11-28T17:12:55.700Z,40.20
2022-11-28T17:15:31.013Z,39.30
2022-11-28T17:17:59.466Z,39.40
2022-11-28T17:20:28.670Z,40.30
2022-11-28T17:22:59.141Z,39.90
2022-11-28T17:25:27.210Z,38.60
2022-11-28T17:27:55.096Z,39.30
2022-11-28T17:30:23.285Z,44.50
2022-11-28T17:32:52.156Z,43.80
2022-11-28T17:35:23.655Z,39.10
2022-11-28T17:37:51.859Z,46.70
2022-11-28T17:40:36.755Z,44.80
2022-11-28T17:43:16.688Z,44.60
2022-11-28T17:45:45.178Z,43.80
2022-11-28T17:48:15.958Z,41.80
2022-11-28T17:50:46.837Z,39.30
2022-11-28T17:53:18.106Z,40.20
2022-11-28T17:55:48.903Z,33.10
2022-11-28T17:58:22.446Z,39.20
2022-11-28T18:00:53.118Z,38.00
2022-11-28T18:03:23.974Z,43.70
2022-11-28T18:05:51.905Z,43.40
2022-11-28T18:08:22.379Z,54.20
2022-11-28T18:10:50.916Z,46.80
2022-11-28T18:13:19.095Z,46.30
2022-11-28T18:15:47.974Z,55.70
2022-11-28T18:18:16.123Z,52.40
2022-11-28T18:20:44.035Z,47.00
2022-11-28T18:23:12.524Z,40.00
2022-11-28T18:25:44.374Z,42.10
2022-11-28T18:28:18.694Z,40.50
2022-11-28T18:30:47.799Z,40.40
2022-11-28T18:33:16.906Z,43.70
2022-11-28T18:35:44.836Z,38.00
2022-11-28T18:38:12.911Z,37.10
2022-11-28T18:40:40.884Z,41.90
2022-11-28T18:43:08.993Z,37.50
2022-11-28T18:45:36.828Z,33.20
2022-11-28T18:48:05.098Z,32.40
2022-11-28T18:50:35.115Z,33.30
2022-11-28T18:53:03.186Z,32.40
2022-11-28T18:55:31.080Z,34.50
2022-11-28T18:58:01.781Z,32.70
2022-11-28T19:00:29.769Z,32.70
2022-11-28T19:02:57.734Z,35.70
2022-11-28T19:05:25.697Z,38.10
2022-11-28T19:07:53.742Z,35.90
2022-11-28T19:10:21.684Z,34.70
2022-11-28T19:12:49.557Z,30.40
2022-11-28T19:15:17.798Z,32.20
2022-11-28T19:17:45.628Z,32.70
2022-11-28T19:20:13.598Z,33.40
2022-11-28T19:22:41.475Z,32.80
2022-11-28T19:25:09.870Z,33.80
2022-11-28T19:27:38.009Z,34.40
2022-11-28T19:30:07.209Z,32.00
2022-11-28T19:32:36.364Z,31.40
2022-11-28T19:35:04.957Z,30.20
2022-11-28T19:37:33.331Z,29.20
2022-11-28T19:40:02.819Z,30.50
2022-11-28T19:42:31.229Z,30.80
2022-11-28T19:45:02.116Z,31.00
2022-11-28T19:47:30.124Z,29.80
2022-11-28T19:49:58.243Z,30.70
2022-11-28T19:52:26.126Z,30.30
2022-11-28T19:54:55.500Z,29.00
2022-11-28T19:57:26.543Z,31.10
2022-11-28T19:59:54.753Z,31.30
2022-11-28T20:02:23.624Z,29.20
2022-11-28T20:04:52.318Z,29.80
2022-11-28T20:07:20.326Z,29.20
2022-11-28T20:09:48.450Z,31.00
2022-11-28T20:12:16.479Z,32.70
2022-11-28T20:14:44.508Z,34.50
2022-11-28T20:17:12.568Z,34.30
2022-11-28T20:19:40.714Z,33.20
2022-11-28T20:22:09.239Z,32.80
2022-11-28T20:24:37.416Z,30.30
2022-11-28T20:27:05.432Z,29.70
2022-11-28T20:29:33.704Z,28.80
2022-11-28T20:32:01.981Z,30.60
2022-11-28T20:34:29.977Z,30.60
2022-11-28T20:37:04.561Z,29.50
2022-11-28T20:39:32.622Z,26.80
2022-11-28T20:42:00.731Z,26.50
2022-11-28T20:44:31.662Z,31.00
2022-11-28T20:46:59.909Z,30.00
2022-11-28T20:49:28.466Z,28.10
2022-11-28T20:51:56.351Z,30.00
2022-11-28T20:54:26.072Z,30.20
2022-11-28T20:59:44.026Z,27.80
2022-11-28T21:02:25.766Z,26.20
2022-11-28T21:07:25.347Z,26.60
2022-11-28T21:10:00.204Z,27.70
2022-11-28T21:12:28.201Z,24.70
2022-11-28T21:14:56.242Z,27.30
2022-11-28T21:17:24.368Z,26.70
2022-11-28T21:19:52.936Z,27.30
2022-11-28T21:22:20.953Z,23.80
2022-11-28T21:24:51.258Z,27.90
2022-11-28T21:27:19.386Z,27.00
2022-11-28T21:29:52.187Z,26.60
2022-11-28T21:32:20.287Z,25.40
2022-11-28T21:34:48.231Z,24.60
2022-11-28T21:37:16.207Z,24.60
2022-11-28T21:39:44.785Z,27.60
2022-11-28T21:42:18.988Z,25.90
2022-11-28T21:44:48.359Z,27.20
2022-11-28T21:47:16.375Z,26.60
2022-11-28T21:49:44.842Z,26.20
2022-11-28T21:52:13.638Z,26.10
2022-11-28T21:54:41.706Z,25.80
2022-11-28T21:57:09.985Z,25.70
2022-11-28T21:59:38.869Z,27.50
2022-11-28T22:02:11.413Z,25.10
2022-11-28T22:04:39.933Z,25.50
2022-11-28T22:07:08.717Z,27.20
2022-11-28T22:09:36.938Z,27.10
2022-11-28T22:12:05.794Z,25.90
2022-11-28T22:14:37.879Z,26.10
2022-11-28T22:17:53.595Z,23.80
2022-11-28T22:20:21.558Z,25.30
2022-11-28T22:22:50.423Z,26.50
2022-11-28T22:25:18.579Z,26.00
2022-11-28T22:27:46.673Z,24.60
2022-11-28T22:30:15.064Z,24.00
2022-11-28T22:32:43.153Z,24.80
2022-11-28T22:35:15.721Z,25.00
2022-11-28T22:37:43.884Z,25.30
2022-11-28T22:40:15.720Z,28.40
2022-11-28T22:42:44.029Z,25.40
2022-11-28T22:45:12.280Z,25.50
2022-11-28T22:47:40.474Z,25.10
2022-11-28T22:50:09.126Z,24.40
2022-11-28T22:52:37.258Z,24.50
2022-11-28T22:55:06.279Z,28.50
2022-11-28T22:57:34.394Z,29.20
2022-11-28T23:00:02.315Z,29.50
2022-11-28T23:02:30.659Z,28.60
2022-11-28T23:04:58.878Z,27.20
2022-11-28T23:07:27.284Z,30.20
2022-11-28T23:09:55.655Z,26.30
2022-11-28T23:19:26.504Z,26.50
2022-11-28T23:21:54.917Z,23.50
2022-11-28T23:24:23.874Z,25.30
2022-11-28T23:26:52.844Z,26.50
2022-11-28T23:29:21.096Z,26.80
2022-11-28T23:31:49.335Z,25.00
2022-11-28T23:34:17.486Z,23.90
2022-11-28T23:36:47.286Z,24.40
2022-11-28T23:39:19.859Z,24.10
2022-11-28T23:41:48.169Z,25.80
2022-11-28T23:44:18.424Z,23.60
2022-11-28T23:46:48.774Z,24.20
2022-11-28T23:49:16.877Z,25.20
2022-11-28T23:51:44.920Z,24.00
2022-11-28T23:54:13.052Z,24.50
2022-11-28T23:56:41.921Z,23.40
2022-11-28T23:59:11.726Z,22.90
